Wetterdaten: Woche 04.05.15 - 10.05.15 (KW19)
Datum Zeit Temp. A. Feuchte A. Luftdruck Regen Wind Richtung Sonnenschein ET UV Solar Taupunkt Windchill Windben
04.05.2015 00:00 13,8 C 97 % 1007,6 hPa 0,0 l/m 2,7 km/h (1 Bft) SW 0,00 h 0,000 mm 0,0 UV-I 0 W/m 13,4 C 13,8 C 7,0 km/h (2 Bft)
04.05.2015 01:00 13,9 C 97 % 1007,8 hPa 0,0 l/m 1,6 km/h (1 Bft) SW 0,00 h 0,000 mm 0,0 UV-I 0 W/m 13,4 C 13,9 C 4,7 km/h (1 Bft)
04.05.2015 02:00 13,9 C 97 % 1007,9 hPa 0,0 l/m 2,7 km/h (1 Bft) SW 0,00 h 0,000 mm 0,0 UV-I 0 W/m 13,4 C 13,9 C 7,2 km/h (2 Bft)
04.05.2015 03:00 13,9 C 97 % 1008,2 hPa 0,2 l/m 2,7 km/h (1 Bft) SW 0,00 h 0,000 mm 0,0 UV-I 0 W/m 13,5 C 13,9 C 7,2 km/h (2 Bft)
04.05.2015 04:00 13,9 C 96 % 1008,3 hPa 0,8 l/m 1,3 km/h (1 Bft) W-SW 0,00 h 0,000 mm 0,0 UV-I 0 W/m 13,3 C 13,9 C 4,5 km/h (1 Bft)
04.05.2015 05:00 13,7 C 97 % 1008,6 hPa 0,8 l/m 3,3 km/h (1 Bft) W-SW 0,00 h 0,000 mm 0,0 UV-I 5 W/m 13,2 C 13,6 C 7,2 km/h (2 Bft)
04.05.2015 06:00 13,5 C 96 % 1009,2 hPa 0,0 l/m 3,0 km/h (1 Bft) W-SW 0,00 h 0,000 mm 0,0 UV-I 23 W/m 12,9 C 13,4 C 6,8 km/h (2 Bft)
04.05.2015 07:00 13,4 C 96 % 1010,0 hPa 0,0 l/m 2,7 km/h (1 Bft) W-SW 0,95 h 0,025 mm 0,5 UV-I 80 W/m 12,8 C 13,4 C 6,6 km/h (2 Bft)
04.05.2015 08:00 14,1 C 94 % 1010,7 hPa 0,0 l/m 3,1 km/h (1 Bft) W-SW 1,00 h 0,051 mm 0,9 UV-I 197 W/m 13,1 C 14,0 C 7,0 km/h (2 Bft)
04.05.2015 09:00 15,1 C 90 % 1011,1 hPa 0,0 l/m 3,3 km/h (1 Bft) W-SW 1,00 h 0,102 mm 1,4 UV-I 259 W/m 13,4 C 15,0 C 7,2 km/h (2 Bft)
04.05.2015 10:00 16,1 C 83 % 1011,1 hPa 0,0 l/m 5,0 km/h (1 Bft) SW 1,00 h 0,152 mm 2,6 UV-I 419 W/m 13,3 C 15,9 C 10,0 km/h (2 Bft)
04.05.2015 11:00 17,1 C 75 % 1011,2 hPa 0,0 l/m 6,5 km/h (2 Bft) W-SW 1,00 h 0,254 mm 3,4 UV-I 369 W/m 12,6 C 16,6 C 12,5 km/h (2 Bft)
04.05.2015 12:00 18,4 C 65 % 1011,3 hPa 0,0 l/m 8,9 km/h (2 Bft) W-SW 1,00 h 0,254 mm 5,4 UV-I 815 W/m 11,5 C 17,2 C 16,0 km/h (3 Bft)
04.05.2015 13:00 18,9 C 60 % 1011,3 hPa 0,0 l/m 8,0 km/h (2 Bft) W-SW 1,00 h 0,483 mm 5,0 UV-I 502 W/m 10,9 C 18,0 C 14,5 km/h (3 Bft)
04.05.2015 14:00 20,1 C 56 % 1011,2 hPa 0,0 l/m 6,8 km/h (2 Bft) W-SW 1,00 h 0,381 mm 4,7 UV-I 694 W/m 11,0 C 19,5 C 12,7 km/h (3 Bft)
04.05.2015 15:00 20,4 C 53 % 1010,6 hPa 0,0 l/m 4,4 km/h (1 Bft) W-SW 1,00 h 0,432 mm 3,5 UV-I 495 W/m 10,5 C 20,3 C 9,4 km/h (2 Bft)
04.05.2015 16:00 21,3 C 50 % 1010,1 hPa 0,0 l/m 6,0 km/h (2 Bft) W-SW 1,00 h 0,330 mm 2,8 UV-I 579 W/m 10,4 C 21,0 C 10,9 km/h (2 Bft)
04.05.2015 17:00 21,7 C 49 % 1010,2 hPa 0,0 l/m 5,1 km/h (1 Bft) W 1,00 h 0,381 mm 1,7 UV-I 463 W/m 10,4 C 21,4 C 9,4 km/h (2 Bft)
04.05.2015 18:00 20,3 C 53 % 1009,9 hPa 0,0 l/m 1,5 km/h (1 Bft) N 0,97 h 0,305 mm 0,7 UV-I 93 W/m 10,5 C 20,3 C 3,9 km/h (1 Bft)
04.05.2015 19:00 19,3 C 60 % 1009,8 hPa 0,0 l/m 0,9 km/h (0 Bft) S 0,30 h 0,076 mm 0,0 UV-I 44 W/m 11,4 C 19,3 C 2,6 km/h (1 Bft)
04.05.2015 20:00 17,9 C 72 % 1009,7 hPa 0,0 l/m 1,6 km/h (1 Bft) SO 0,00 h 0,025 mm 0,0 UV-I 9 W/m 12,7 C 17,9 C 4,0 km/h (1 Bft)
04.05.2015 21:00 16,3 C 82 % 1009,3 hPa 0,0 l/m 2,5 km/h (1 Bft) SO 0,00 h 0,025 mm 0,0 UV-I 0 W/m 13,3 C 16,3 C 5,8 km/h (2 Bft)
04.05.2015 22:00 15,3 C 88 % 1009,3 hPa 0,0 l/m 1,2 km/h (1 Bft) N 0,00 h 0,025 mm 0,0 UV-I 0 W/m 13,3 C 15,3 C 2,4 km/h (1 Bft)
04.05.2015 23:00 14,5 C 90 % 1008,8 hPa 0,0 l/m 0,8 km/h (0 Bft) N 0,00 h 0,000 mm 0,0 UV-I 0 W/m 12,9 C 14,5 C 2,4 km/h (1 Bft)
05.05.2015 00:00 14,3 C 91 % 1008,2 hPa 0,0 l/m 0,3 km/h (0 Bft) N 0,00 h 0,000 mm 0,0 UV-I 0 W/m 12,8 C 14,3 C 1,3 km/h (1 Bft)
05.05.2015 01:00 14,0 C 91 % 1007,5 hPa 0,0 l/m 0,6 km/h (0 Bft) N 0,00 h 0,000 mm 0,0 UV-I 0 W/m 12,5 C 14,0 C 1,8 km/h (1 Bft)
05.05.2015 02:00 13,8 C 91 % 1007,1 hPa 0,0 l/m 0,5 km/h (0 Bft) N 0,00 h 0,000 mm 0,0 UV-I 0 W/m 12,4 C 13,8 C 1,3 km/h (1 Bft)
05.05.2015 03:00 14,4 C 88 % 1006,0 hPa 0,0 l/m 2,7 km/h (1 Bft) O 0,00 h 0,000 mm 0,0 UV-I 0 W/m 12,4 C 14,4 C 5,6 km/h (2 Bft)
05.05.2015 04:00 14,9 C 84 % 1005,5 hPa 0,0 l/m 1,2 km/h (1 Bft) N 0,00 h 0,000 mm 0,0 UV-I 0 W/m 12,3 C 14,9 C 2,7 km/h (1 Bft)
05.05.2015 05:00 14,4 C 86 % 1005,5 hPa 0,0 l/m 0,2 km/h (0 Bft) N 0,00 h 0,025 mm 0,0 UV-I 5 W/m 12,1 C 14,4 C 0,9 km/h (0 Bft)
05.05.2015 06:00 13,6 C 88 % 1004,9 hPa 0,0 l/m 1,0 km/h (0 Bft) O-NO 0,00 h 0,000 mm 0,0 UV-I 29 W/m 11,7 C 13,6 C 3,1 km/h (1 Bft)
05.05.2015 07:00 14,6 C 86 % 1005,1 hPa 0,0 l/m 2,2 km/h (1 Bft) O-NO 0,92 h 0,025 mm 0,6 UV-I 90 W/m 12,4 C 14,6 C 4,9 km/h (1 Bft)
05.05.2015 08:00 16,8 C 81 % 1004,9 hPa 0,0 l/m 3,0 km/h (1 Bft) O 1,00 h 0,051 mm 1,3 UV-I 275 W/m 13,6 C 16,7 C 6,7 km/h (2 Bft)
05.05.2015 09:00 19,5 C 74 % 1004,7 hPa 0,0 l/m 1,7 km/h (1 Bft) O-NO 1,00 h 0,152 mm 2,3 UV-I 445 W/m 14,7 C 19,5 C 4,1 km/h (1 Bft)
05.05.2015 10:00 21,0 C 68 % 1004,6 hPa 0,0 l/m 1,6 km/h (1 Bft) N 1,00 h 0,254 mm 2,4 UV-I 320 W/m 15,0 C 21,0 C 3,5 km/h (1 Bft)
05.05.2015 11:00 21,1 C 67 % 1005,3 hPa 0,0 l/m 4,8 km/h (1 Bft) S 1,00 h 0,203 mm 2,2 UV-I 260 W/m 14,8 C 21,0 C 9,2 km/h (2 Bft)
05.05.2015 12:00 22,4 C 63 % 1005,1 hPa 0,0 l/m 4,9 km/h (1 Bft) S 1,00 h 0,178 mm 4,2 UV-I 516 W/m 14,9 C 22,3 C 9,4 km/h (2 Bft)
05.05.2015 13:00 23,1 C 60 % 1005,0 hPa 0,0 l/m 6,3 km/h (2 Bft) S 1,00 h 0,330 mm 3,6 UV-I 425 W/m 15,0 C 22,9 C 11,0 km/h (2 Bft)
05.05.2015 14:00 23,2 C 60 % 1005,4 hPa 0,0 l/m 5,7 km/h (2 Bft) SW 1,00 h 0,305 mm 2,9 UV-I 367 W/m 15,0 C 22,9 C 11,1 km/h (2 Bft)
05.05.2015 15:00 23,7 C 54 % 1006,2 hPa 0,0 l/m 10,1 km/h (2 Bft) W-SW 1,00 h 0,254 mm 2,9 UV-I 413 W/m 13,8 C 22,7 C 16,8 km/h (3 Bft)
05.05.2015 16:00 22,8 C 52 % 1006,8 hPa 0,0 l/m 9,8 km/h (2 Bft) W-SW 1,00 h 0,330 mm 2,4 UV-I 417 W/m 12,3 C 21,8 C 17,3 km/h (3 Bft)
05.05.2015 17:00 22,0 C 54 % 1006,8 hPa 0,0 l/m 3,7 km/h (1 Bft) W-SW 1,00 h 0,330 mm 1,1 UV-I 183 W/m 12,4 C 22,0 C 8,6 km/h (2 Bft)
05.05.2015 18:00 21,2 C 57 % 1006,8 hPa 0,0 l/m 4,5 km/h (1 Bft) SW 0,88 h 0,152 mm 0,8 UV-I 111 W/m 12,3 C 21,0 C 9,6 km/h (2 Bft)
05.05.2015 19:00 19,9 C 58 % 1007,7 hPa 0,0 l/m 8,4 km/h (2 Bft) W 0,00 h 0,102 mm 0,0 UV-I 23 W/m 11,3 C 18,9 C 15,1 km/h (3 Bft)
05.05.2015 20:00 17,4 C 72 % 1008,3 hPa 0,2 l/m 0,8 km/h (0 Bft) N 0,00 h 0,076 mm 0,0 UV-I 6 W/m 12,3 C 17,4 C 2,6 km/h (1 Bft)
05.05.2015 21:00 16,1 C 79 % 1009,4 hPa 0,2 l/m 2,0 km/h (1 Bft) S 0,00 h 0,000 mm 0,0 UV-I 0 W/m 12,5 C 16,1 C 4,5 km/h (1 Bft)
05.05.2015 22:00 15,0 C 85 % 1010,6 hPa 1,0 l/m 2,9 km/h (1 Bft) SW 0,00 h 0,025 mm 0,0 UV-I 0 W/m 12,5 C 15,0 C 6,2 km/h (2 Bft)
05.05.2015 23:00 14,1 C 92 % 1010,5 hPa 0,0 l/m 1,1 km/h (0 Bft) S-SO 0,00 h 0,025 mm 0,0 UV-I 0 W/m 12,7 C 14,1 C 3,0 km/h (1 Bft)
06.05.2015 00:00 13,9 C 93 % 1011,0 hPa 0,2 l/m 0,2 km/h (0 Bft) N 0,00 h 0,000 mm 0,0 UV-I 0 W/m 12,8 C 13,9 C 1,0 km/h (0 Bft)
06.05.2015 01:00 13,8 C 94 % 1011,3 hPa 0,0 l/m 3,4 km/h (1 Bft) S 0,00 h 0,000 mm 0,0 UV-I 0 W/m 12,8 C 13,7 C 7,9 km/h (2 Bft)
06.05.2015 02:00 13,7 C 95 % 1011,2 hPa 0,2 l/m 1,3 km/h (1 Bft) S 0,00 h 0,000 mm 0,0 UV-I 0 W/m 12,9 C 13,7 C 3,6 km/h (1 Bft)
06.05.2015 03:00 13,6 C 96 % 1011,6 hPa 0,6 l/m 1,8 km/h (1 Bft) S-SW 0,00 h 0,000 mm 0,0 UV-I 0 W/m 13,0 C 13,6 C 5,1 km/h (1 Bft)
06.05.2015 04:00 13,3 C 96 % 1011,4 hPa 0,0 l/m 0,5 km/h (0 Bft) N 0,00 h 0,000 mm 0,0 UV-I 0 W/m 12,6 C 13,3 C 1,6 km/h (1 Bft)
06.05.2015 05:00 13,0 C 96 % 1011,4 hPa 0,2 l/m 0,2 km/h (0 Bft) N 0,00 h 0,000 mm 0,0 UV-I 0 W/m 12,4 C 13,0 C 1,0 km/h (0 Bft)
06.05.2015 06:00 12,8 C 96 % 1011,8 hPa 0,0 l/m 0,5 km/h (0 Bft) N 0,00 h 0,000 mm 0,0 UV-I 11 W/m 12,2 C 12,8 C 1,2 km/h (1 Bft)
06.05.2015 07:00 12,9 C 96 % 1012,2 hPa 0,0 l/m 1,2 km/h (1 Bft) N 0,77 h 0,000 mm 0,0 UV-I 61 W/m 12,3 C 12,9 C 3,2 km/h (1 Bft)
06.05.2015 08:00 13,3 C 95 % 1012,4 hPa 0,0 l/m 2,6 km/h (1 Bft) S 1,00 h 0,025 mm 0,7 UV-I 108 W/m 12,6 C 13,2 C 5,7 km/h (2 Bft)
06.05.2015 09:00 13,6 C 92 % 1012,8 hPa 0,0 l/m 4,4 km/h (1 Bft) SW 1,00 h 0,051 mm 1,0 UV-I 164 W/m 12,4 C 13,4 C 8,6 km/h (2 Bft)
06.05.2015 10:00 14,1 C 89 % 1012,9 hPa 0,0 l/m 4,9 km/h (1 Bft) SW 1,00 h 0,076 mm 1,9 UV-I 265 W/m 12,2 C 13,7 C 9,6 km/h (2 Bft)
06.05.2015 11:00 15,0 C 81 % 1013,2 hPa 0,0 l/m 8,0 km/h (2 Bft) W-SW 1,00 h 0,152 mm 2,5 UV-I 339 W/m 11,6 C 13,8 C 14,8 km/h (3 Bft)
06.05.2015 12:00 15,8 C 72 % 1013,2 hPa 0,0 l/m 9,4 km/h (2 Bft) W-SW 1,00 h 0,203 mm 4,3 UV-I 611 W/m 10,6 C 14,2 C 16,4 km/h (3 Bft)
06.05.2015 13:00 15,4 C 68 % 1013,5 hPa 0,0 l/m 9,7 km/h (2 Bft) W-SW 1,00 h 0,356 mm 2,6 UV-I 329 W/m 9,5 C 13,7 C 16,7 km/h (3 Bft)
06.05.2015 14:00 15,9 C 57 % 1013,9 hPa 0,0 l/m 12,9 km/h (3 Bft) W-SW 1,00 h 0,229 mm 4,1 UV-I 562 W/m 7,3 C 13,2 C 22,5 km/h (4 Bft)
06.05.2015 15:00 15,8 C 54 % 1013,9 hPa 0,0 l/m 8,3 km/h (2 Bft) W-SW 1,00 h 0,381 mm 2,6 UV-I 444 W/m 6,4 C 14,6 C 15,8 km/h (3 Bft)
06.05.2015 16:00 17,1 C 49 % 1013,6 hPa 0,0 l/m 8,0 km/h (2 Bft) W-SW 1,00 h 0,279 mm 2,7 UV-I 615 W/m 6,3 C 16,1 C 15,6 km/h (3 Bft)
06.05.2015 17:00 16,8 C 51 % 1013,6 hPa 0,0 l/m 6,9 km/h (2 Bft) W-SW 1,00 h 0,381 mm 1,4 UV-I 338 W/m 6,5 C 16,1 C 13,0 km/h (3 Bft)
06.05.2015 18:00 16,5 C 47 % 1013,6 hPa 0,0 l/m 7,2 km/h (2 Bft) W-SW 0,43 h 0,229 mm 0,8 UV-I 61 W/m 5,3 C 15,7 C 13,6 km/h (3 Bft)
06.05.2015 19:00 15,4 C 54 % 1013,8 hPa 0,0 l/m 2,9 km/h (1 Bft) SW 0,00 h 0,102 mm 0,0 UV-I 29 W/m 6,0 C 15,3 C 7,2 km/h (2 Bft)
06.05.2015 20:00 14,1 C 66 % 1014,3 hPa 0,0 l/m 5,2 km/h (1 Bft) S 0,03 h 0,051 mm 0,0 UV-I 15 W/m 7,8 C 13,8 C 9,5 km/h (2 Bft)
06.05.2015 21:00 10,8 C 87 % 1015,4 hPa 1,4 l/m 2,2 km/h (1 Bft) N 0,00 h 0,025 mm 0,0 UV-I 0 W/m 8,6 C 10,3 C 4,0 km/h (1 Bft)
06.05.2015 22:00 10,0 C 93 % 1015,7 hPa 0,0 l/m 0,4 km/h (0 Bft) N 0,00 h 0,000 mm 0,0 UV-I 0 W/m 8,9 C 10,0 C 1,3 km/h (1 Bft)
06.05.2015 23:00 9,6 C 93 % 1016,2 hPa 0,0 l/m 0,1 km/h (0 Bft) N 0,00 h 0,000 mm 0,0 UV-I 0 W/m 8,5 C 9,6 C 0,5 km/h (0 Bft)
07.05.2015 00:00 8,8 C 94 % 1016,9 hPa 0,0 l/m 0,0 km/h (0 Bft) N 0,00 h 0,000 mm 0,0 UV-I 0 W/m 7,9 C 8,8 C 0,1 km/h (0 Bft)
07.05.2015 01:00 8,3 C 95 % 1017,0 hPa 0,0 l/m 0,1 km/h (0 Bft) N 0,00 h 0,000 mm 0,0 UV-I 0 W/m 7,5 C 8,3 C 0,2 km/h (0 Bft)
07.05.2015 02:00 7,5 C 94 % 1017,2 hPa 0,0 l/m 0,0 km/h (0 Bft) N 0,00 h 0,000 mm 0,0 UV-I 0 W/m 6,6 C 7,5 C 0,2 km/h (0 Bft)
07.05.2015 03:00 6,9 C 95 % 1017,4 hPa 0,0 l/m 0,1 km/h (0 Bft) N 0,00 h 0,000 mm 0,0 UV-I 0 W/m 6,1 C 6,9 C 0,4 km/h (0 Bft)
07.05.2015 04:00 7,0 C 96 % 1017,5 hPa 0,0 l/m 0,7 km/h (0 Bft) S 0,00 h 0,000 mm 0,0 UV-I 0 W/m 6,3 C 7,0 C 2,7 km/h (1 Bft)
07.05.2015 05:00 6,7 C 96 % 1017,7 hPa 0,0 l/m 0,5 km/h (0 Bft) N 0,00 h 0,000 mm 0,0 UV-I 7 W/m 6,1 C 6,7 C 1,7 km/h (1 Bft)
07.05.2015 06:00 6,5 C 95 % 1018,0 hPa 0,0 l/m 0,0 km/h (0 Bft) N 0,07 h 0,000 mm 0,0 UV-I 25 W/m 5,8 C 6,5 C 0,1 km/h (0 Bft)
07.05.2015 07:00 8,3 C 93 % 1018,5 hPa 0,0 l/m 1,9 km/h (1 Bft) SW 0,92 h 0,000 mm 0,6 UV-I 149 W/m 7,2 C 8,3 C 4,4 km/h (1 Bft)
07.05.2015 08:00 10,0 C 85 % 1018,9 hPa 0,0 l/m 7,4 km/h (2 Bft) W-SW 1,00 h 0,076 mm 1,2 UV-I 341 W/m 7,5 C 8,7 C 12,4 km/h (2 Bft)
07.05.2015 09:00 11,7 C 77 % 1019,0 hPa 0,0 l/m 9,2 km/h (2 Bft) W 1,00 h 0,152 mm 2,2 UV-I 557 W/m 7,8 C 9,8 C 16,0 km/h (3 Bft)
07.05.2015 10:00 12,5 C 70 % 1019,0 hPa 0,0 l/m 9,9 km/h (2 Bft) W 1,00 h 0,279 mm 2,1 UV-I 390 W/m 7,1 C 10,3 C 17,1 km/h (3 Bft)
07.05.2015 11:00 12,8 C 64 % 1019,0 hPa 0,0 l/m 11,4 km/h (2 Bft) W 1,00 h 0,229 mm 2,3 UV-I 356 W/m 6,1 C 10,2 C 19,1 km/h (3 Bft)
07.05.2015 12:00 13,7 C 52 % 1018,9 hPa 0,2 l/m 14,1 km/h (3 Bft) W-SW 1,00 h 0,229 mm 4,3 UV-I 623 W/m 4,0 C 10,2 C 24,2 km/h (4 Bft)
07.05.2015 13:00 15,0 C 48 % 1018,8 hPa 0,0 l/m 13,0 km/h (3 Bft) W 1,00 h 0,406 mm 5,2 UV-I 803 W/m 4,1 C 12,0 C 22,1 km/h (4 Bft)
07.05.2015 14:00 15,5 C 46 % 1018,8 hPa 0,0 l/m 11,7 km/h (2 Bft) W-SW 1,00 h 0,483 mm 4,7 UV-I 816 W/m 4,0 C 13,0 C 20,4 km/h (4 Bft)
07.05.2015 15:00 16,0 C 41 % 1018,5 hPa 0,0 l/m 14,6 km/h (3 Bft) W-SW 1,00 h 0,457 mm 4,1 UV-I 742 W/m 2,7 C 12,7 C 25,2 km/h (4 Bft)
07.05.2015 16:00 16,0 C 43 % 1018,5 hPa 0,0 l/m 9,1 km/h (2 Bft) W-SW 1,00 h 0,508 mm 2,5 UV-I 583 W/m 3,3 C 14,6 C 17,4 km/h (3 Bft)
07.05.2015 17:00 15,2 C 46 % 1018,3 hPa 0,0 l/m 6,7 km/h (2 Bft) W-SW 1,00 h 0,356 mm 1,5 UV-I 314 W/m 3,6 C 14,3 C 12,8 km/h (3 Bft)
07.05.2015 18:00 14,8 C 45 % 1018,3 hPa 0,0 l/m 7,1 km/h (2 Bft) W-SW 0,78 h 0,229 mm 0,7 UV-I 61 W/m 3,0 C 14,1 C 14,0 km/h (3 Bft)
07.05.2015 19:00 14,1 C 48 % 1018,5 hPa 0,0 l/m 2,6 km/h (1 Bft) W-SW 0,10 h 0,076 mm 0,0 UV-I 32 W/m 3,1 C 14,0 C 5,9 km/h (2 Bft)
07.05.2015 20:00 12,7 C 55 % 1019,0 hPa 0,0 l/m 0,5 km/h (0 Bft) N 0,00 h 0,051 mm 0,0 UV-I 10 W/m 3,9 C 12,7 C 1,8 km/h (1 Bft)
07.05.2015 21:00 9,7 C 73 % 1019,6 hPa 0,0 l/m 0,0 km/h (0 Bft) N 0,00 h 0,000 mm 0,0 UV-I 0 W/m 5,1 C 9,7 C 0,2 km/h (0 Bft)
07.05.2015 22:00 7,9 C 82 % 1019,9 hPa 0,0 l/m 0,0 km/h (0 Bft) N 0,00 h 0,025 mm 0,0 UV-I 0 W/m 5,0 C 7,9 C 0,1 km/h (0 Bft)
07.05.2015 23:00 6,5 C 87 % 1019,7 hPa 0,0 l/m 0,1 km/h (0 Bft) N 0,00 h 0,000 mm 0,0 UV-I 0 W/m 4,5 C 6,5 C 0,5 km/h (0 Bft)
08.05.2015 00:00 5,5 C 89 % 1019,6 hPa 0,0 l/m 0,0 km/h (0 Bft) N 0,00 h 0,000 mm 0,0 UV-I 0 W/m 3,9 C 5,5 C 0,0 km/h (0 Bft)
08.05.2015 01:00 4,7 C 91 % 1019,5 hPa 0,0 l/m 0,0 km/h (0 Bft) N 0,00 h 0,000 mm 0,0 UV-I 0 W/m 3,4 C 4,7 C 0,0 km/h (0 Bft)
08.05.2015 02:00 4,3 C 92 % 1019,2 hPa 0,0 l/m 0,0 km/h (0 Bft) N 0,00 h 0,000 mm 0,0 UV-I 0 W/m 3,2 C 4,3 C 0,0 km/h (0 Bft)
08.05.2015 03:00 4,1 C 93 % 1018,9 hPa 0,0 l/m 0,1 km/h (0 Bft) N 0,00 h 0,000 mm 0,0 UV-I 0 W/m 3,0 C 4,1 C 0,3 km/h (0 Bft)
08.05.2015 04:00 4,0 C 94 % 1018,7 hPa 0,0 l/m 0,0 km/h (0 Bft) N 0,00 h 0,000 mm 0,0 UV-I 0 W/m 3,1 C 4,0 C 0,0 km/h (0 Bft)
08.05.2015 05:00 4,1 C 94 % 1018,5 hPa 0,0 l/m 0,0 km/h (0 Bft) N 0,00 h 0,000 mm 0,0 UV-I 6 W/m 3,2 C 4,1 C 0,2 km/h (0 Bft)
08.05.2015 06:00 4,6 C 94 % 1018,5 hPa 0,0 l/m 0,0 km/h (0 Bft) N 0,45 h 0,000 mm 0,0 UV-I 41 W/m 3,8 C 4,6 C 0,1 km/h (0 Bft)
08.05.2015 07:00 6,9 C 91 % 1018,2 hPa 0,0 l/m 0,0 km/h (0 Bft) N 1,00 h 0,025 mm 0,5 UV-I 121 W/m 5,6 C 6,9 C 0,2 km/h (0 Bft)
08.05.2015 08:00 9,9 C 85 % 1018,0 hPa 0,0 l/m 0,1 km/h (0 Bft) N 1,00 h 0,051 mm 1,0 UV-I 207 W/m 7,4 C 9,9 C 0,4 km/h (0 Bft)
08.05.2015 09:00 13,3 C 66 % 1017,5 hPa 0,0 l/m 1,2 km/h (1 Bft) N 1,00 h 0,102 mm 2,2 UV-I 484 W/m 7,0 C 13,3 C 3,5 km/h (1 Bft)
08.05.2015 10:00 15,9 C 54 % 1017,0 hPa 0,0 l/m 2,6 km/h (1 Bft) O 1,00 h 0,254 mm 3,3 UV-I 650 W/m 6,7 C 15,9 C 6,3 km/h (2 Bft)
08.05.2015 11:00 17,6 C 51 % 1016,5 hPa 0,0 l/m 2,9 km/h (1 Bft) O 1,00 h 0,356 mm 4,7 UV-I 838 W/m 7,3 C 17,6 C 7,3 km/h (2 Bft)
08.05.2015 12:00 18,5 C 49 % 1016,2 hPa 0,0 l/m 4,2 km/h (1 Bft) SO 1,00 h 0,483 mm 5,1 UV-I 770 W/m 7,6 C 18,3 C 8,8 km/h (2 Bft)
08.05.2015 13:00 19,0 C 49 % 1015,5 hPa 0,0 l/m 3,0 km/h (1 Bft) SO 1,00 h 0,483 mm 4,8 UV-I 690 W/m 7,9 C 18,9 C 7,6 km/h (2 Bft)
08.05.2015 14:00 19,5 C 45 % 1015,1 hPa 0,0 l/m 4,8 km/h (1 Bft) SO 1,00 h 0,432 mm 4,4 UV-I 723 W/m 7,2 C 19,1 C 9,1 km/h (2 Bft)
08.05.2015 15:00 20,0 C 44 % 1014,6 hPa 0,0 l/m 2,8 km/h (1 Bft) SO 1,00 h 0,432 mm 3,6 UV-I 673 W/m 7,4 C 20,0 C 6,5 km/h (2 Bft)
08.05.2015 16:00 20,1 C 43 % 1014,1 hPa 0,0 l/m 2,1 km/h (1 Bft) O 1,00 h 0,406 mm 2,4 UV-I 538 W/m 7,3 C 20,1 C 5,7 km/h (2 Bft)
08.05.2015 17:00 20,3 C 41 % 1013,7 hPa 0,0 l/m 2,8 km/h (1 Bft) N 1,00 h 0,330 mm 1,5 UV-I 411 W/m 6,7 C 20,2 C 6,0 km/h (2 Bft)
08.05.2015 18:00 19,0 C 47 % 1013,5 hPa 0,0 l/m 4,5 km/h (1 Bft) O-SO 1,00 h 0,254 mm 0,6 UV-I 98 W/m 7,5 C 18,8 C 9,4 km/h (2 Bft)
08.05.2015 19:00 17,6 C 53 % 1013,5 hPa 0,0 l/m 0,3 km/h (0 Bft) N 0,12 h 0,102 mm 0,0 UV-I 40 W/m 7,8 C 17,6 C 1,3 km/h (1 Bft)
08.05.2015 20:00 16,4 C 56 % 1013,8 hPa 0,0 l/m 0,1 km/h (0 Bft) N 0,00 h 0,025 mm 0,0 UV-I 14 W/m 7,6 C 16,4 C 0,8 km/h (0 Bft)
08.05.2015 21:00 14,6 C 62 % 1014,2 hPa 0,0 l/m 0,3 km/h (0 Bft) O-NO 0,00 h 0,025 mm 0,0 UV-I 0 W/m 7,3 C 14,6 C 1,9 km/h (1 Bft)
08.05.2015 22:00 12,9 C 72 % 1014,6 hPa 0,0 l/m 0,1 km/h (0 Bft) N 0,00 h 0,025 mm 0,0 UV-I 0 W/m 7,9 C 12,9 C 0,3 km/h (0 Bft)
08.05.2015 23:00 12,0 C 77 % 1014,8 hPa 0,0 l/m 0,0 km/h (0 Bft) N 0,00 h 0,025 mm 0,0 UV-I 0 W/m 8,2 C 12,0 C 0,1 km/h (0 Bft)
09.05.2015 00:00 11,1 C 83 % 1014,8 hPa 0,0 l/m 0,0 km/h (0 Bft) N 0,00 h 0,025 mm 0,0 UV-I 0 W/m 8,3 C 11,1 C 0,1 km/h (0 Bft)
09.05.2015 01:00 10,7 C 86 % 1014,9 hPa 0,0 l/m 0,0 km/h (0 Bft) N 0,00 h 0,000 mm 0,0 UV-I 0 W/m 8,6 C 10,7 C 0,0 km/h (0 Bft)
09.05.2015 02:00 9,9 C 88 % 1015,0 hPa 0,0 l/m 0,0 km/h (0 Bft) N 0,00 h 0,000 mm 0,0 UV-I 0 W/m 8,1 C 9,9 C 0,0 km/h (0 Bft)
09.05.2015 03:00 10,3 C 88 % 1015,8 hPa 0,0 l/m 0,0 km/h (0 Bft) N 0,00 h 0,000 mm 0,0 UV-I 0 W/m 8,4 C 10,3 C 0,0 km/h (0 Bft)
09.05.2015 04:00 10,2 C 92 % 1016,6 hPa 0,4 l/m 0,2 km/h (0 Bft) N 0,00 h 0,000 mm 0,0 UV-I 0 W/m 8,9 C 10,2 C 0,9 km/h (0 Bft)
09.05.2015 05:00 10,0 C 93 % 1016,7 hPa 0,0 l/m 0,4 km/h (0 Bft) N 0,00 h 0,000 mm 0,0 UV-I 6 W/m 8,9 C 10,0 C 1,2 km/h (1 Bft)
09.05.2015 06:00 10,1 C 94 % 1016,8 hPa 0,0 l/m 0,0 km/h (0 Bft) N 0,00 h 0,000 mm 0,0 UV-I 30 W/m 9,3 C 10,1 C 0,0 km/h (0 Bft)
10.05.2015 12:00 15,6 C 55 % 1025,0 hPa 0,0 l/m 10,0 km/h (2 Bft) W 1,33 h 0,000 mm 3,6 UV-I 584 W/m 6,7 C 13,9 C 18,2 km/h (3 Bft)
10.05.2015 13:00 16,2 C 54 % 1025,2 hPa 0,0 l/m 10,1 km/h (2 Bft) W-SW 1,00 h 0,406 mm 4,3 UV-I 704 W/m 7,0 C 14,4 C 19,1 km/h (3 Bft)
10.05.2015 14:00 17,0 C 50 % 1025,3 hPa 0,0 l/m 9,2 km/h (2 Bft) W 1,00 h 0,432 mm 3,8 UV-I 573 W/m 6,6 C 15,5 C 17,7 km/h (3 Bft)
10.05.2015 15:00 17,3 C 49 % 1025,3 hPa 0,0 l/m 9,1 km/h (2 Bft) W-NW 1,00 h 0,381 mm 2,9 UV-I 537 W/m 6,6 C 15,9 C 17,0 km/h (3 Bft)
10.05.2015 16:00 17,9 C 46 % 1025,2 hPa 0,0 l/m 9,4 km/h (2 Bft) W-NW 1,00 h 0,330 mm 2,5 UV-I 535 W/m 5,9 C 16,4 C 16,9 km/h (3 Bft)
10.05.2015 17:00 17,6 C 44 % 1025,2 hPa 0,0 l/m 8,6 km/h (2 Bft) W 1,00 h 0,356 mm 1,5 UV-I 410 W/m 5,2 C 16,5 C 15,9 km/h (3 Bft)
10.05.2015 18:00 16,7 C 47 % 1025,3 hPa 0,0 l/m 5,8 km/h (2 Bft) NW 0,70 h 0,305 mm 0,6 UV-I 102 W/m 5,3 C 16,1 C 11,5 km/h (2 Bft)
10.05.2015 19:00 15,1 C 53 % 1025,6 hPa 0,0 l/m 0,5 km/h (0 Bft) N 0,00 h 0,102 mm 0,0 UV-I 26 W/m 5,4 C 15,1 C 1,9 km/h (1 Bft)
10.05.2015 20:00 13,3 C 63 % 1026,0 hPa 0,0 l/m 0,2 km/h (0 Bft) N 0,00 h 0,025 mm 0,0 UV-I 11 W/m 6,5 C 13,3 C 0,5 km/h (0 Bft)
10.05.2015 21:00 11,4 C 74 % 1026,7 hPa 0,0 l/m 0,0 km/h (0 Bft) N 0,00 h 0,000 mm 0,0 UV-I 0 W/m 6,9 C 11,4 C 0,2 km/h (0 Bft)
10.05.2015 22:00 9,3 C 83 % 1027,2 hPa 0,0 l/m 0,0 km/h (0 Bft) N 0,00 h 0,025 mm 0,0 UV-I 0 W/m 6,6 C 9,3 C 0,1 km/h (0 Bft)
10.05.2015 23:00 7,9 C 87 % 1027,6 hPa 0,0 l/m 0,0 km/h (0 Bft) N 0,00 h 0,000 mm 0,0 UV-I 0 W/m 5,9 C 7,9 C 0,0 km/h (0 Bft)
Min-Datum _ 08.05.15 07.05.15 05.05.15 - 04.05.15 - - - - - 07.05.15 08.05.15 04.05.15
_ Min-Zeit 03:08 15:40 10:05 - 00:05 - - - - - 15:40 03:08 00:17
Minimum _ 3,9 C 37 % 1004,3 hPa - 0,0 km/h (0 Bft) - - - - - 1,5 C 3,9 C 0,0 km/h (0 Bft)
Max-Datum _ 05.05.15 04.05.15 10.05.15 06.05.15 07.05.15 - 10.05.15 07.05.15 04.05.15 07.05.15 05.05.15 05.05.15 06.05.15
_ Max-Zeit 15:09 00:00 23:52 21:05 12:45 - 12:39 16:00 12:31 13:06 10:42 15:10 21:00
Maximum _ 24,6 C 97 % 1027,8 hPa 1,4 l/m 30,6 km/h
W-SW (5 Bft)
- 1,00 h 0,508 mm 6,9 UV-I 1283 W/m 16,4 C 24,6 C 45,1 km/h
W-SW (6 Bft)
Durchschnitt _ 14,3 C 74 % 1014,1 hPa #6,4 l/m 3,5 km/h (1 Bft) N #67:43 h #18,411 mm 2,6 UV-I 317 W/m 9,1 C 13,9 C 6,9 km/h (2 Bft)